Time;durP1;ratioP1;P1;durP2;ratioP2;P2;SDS_P1;SDS_P2;PMS_P1;PMS_P2;Temp;Humidity;BMP_temperature;BMP_pressure;BME280_temperature;BME280_humidity;BME280_pressure;Samples;Min_cycle;Max_cycle;Signal;HPM_P1;HPM_P2
2022/01/12 00:00:39;;;;;;;16.57;8.00;;;-10.90;99.90;;;;;;4993947;28;20239;-68
2022/01/12 00:03:07;;;;;;;17.30;8.07;;;-10.90;99.90;;;;;;4993960;28;20610;-68
2022/01/12 00:05:34;;;;;;;13.93;7.93;;;-11.00;99.90;;;;;;4992301;28;20223;-69
2022/01/12 00:08:00;;;;;;;16.37;8.07;;;-11.00;99.90;;;;;;4993821;28;20199;-68
2022/01/12 00:10:29;;;;;;;15.23;7.67;;;-11.00;99.90;;;;;;4984013;28;20318;-70
2022/01/12 00:12:55;;;;;;;18.73;8.00;;;-11.00;99.90;;;;;;4994477;28;20207;-69
2022/01/12 00:15:22;;;;;;;14.20;7.90;;;-11.10;99.90;;;;;;4978130;28;20203;-71
2022/01/12 00:17:49;;;;;;;18.83;8.27;;;-11.10;99.90;;;;;;4974545;28;20212;-70
2022/01/12 00:20:16;;;;;;;19.53;9.07;;;-11.10;99.90;;;;;;4974311;28;20299;-68
2022/01/12 00:22:43;;;;;;;17.90;8.47;;;-11.10;99.90;;;;;;4974863;28;20230;-69
2022/01/12 00:25:25;;;;;;;15.20;8.20;;;-11.10;99.90;;;;;;4974568;28;20743;-70
2022/01/12 00:33:30;;;;;;;18.47;9.13;;;-11.20;99.90;;;;;;5013295;28;20190;-71
2022/01/12 00:35:58;;;;;;;22.23;9.40;;;-11.30;99.90;;;;;;5013721;28;20210;-71
2022/01/12 00:38:29;;;;;;;19.23;8.70;;;-11.30;99.90;;;;;;5013064;28;20207;-69
2022/01/12 00:40:57;;;;;;;20.03;8.77;;;-11.20;99.90;;;;;;5013333;28;20206;-70
2022/01/12 00:43:29;;;;;;;21.93;9.40;;;-11.30;99.90;;;;;;5013366;28;20306;-69
2022/01/12 00:45:56;;;;;;;21.67;9.27;;;-11.20;99.90;;;;;;4998026;28;20257;-70
2022/01/12 00:48:23;;;;;;;19.57;8.93;;;-11.20;99.90;;;;;;5006019;28;20198;-70
2022/01/12 00:50:50;;;;;;;18.10;8.83;;;-11.20;99.90;;;;;;5012810;28;20206;-70
2022/01/12 00:53:17;;;;;;;17.33;9.50;;;-11.20;99.90;;;;;;5013209;28;20207;-69
2022/01/12 00:55:44;;;;;;;23.23;8.80;;;-11.20;99.90;;;;;;5012987;28;20202;-71
2022/01/12 00:58:11;;;;;;;18.73;9.13;;;-11.10;99.90;;;;;;4998331;28;20206;-68
2022/01/12 01:00:39;;;;;;;20.90;8.60;;;-11.20;99.90;;;;;;4992969;28;20739;-69
2022/01/12 01:03:08;;;;;;;17.50;8.50;;;-11.10;99.90;;;;;;4992650;28;20657;-69
2022/01/12 01:05:35;;;;;;;17.63;8.93;;;-11.10;99.90;;;;;;4990620;28;20225;-71
2022/01/12 01:08:03;;;;;;;17.60;9.37;;;-11.00;99.90;;;;;;4992007;28;20214;-70
2022/01/12 01:10:42;;;;;;;21.40;9.37;;;-11.00;99.90;;;;;;4992330;28;20246;-71
2022/01/12 01:13:10;;;;;;;17.83;8.67;;;-10.90;99.90;;;;;;4977583;28;20196;-71
2022/01/12 01:26:51;;;;;;;23.90;9.27;;;-10.90;99.90;;;;;;4967935;28;20323;-71
2022/01/12 01:29:19;;;;;;;22.03;9.57;;;-10.90;99.90;;;;;;4970618;28;20235;-70
2022/01/12 01:31:46;;;;;;;18.60;8.87;;;-10.90;99.90;;;;;;4970922;28;20238;-71
2022/01/12 01:34:16;;;;;;;20.37;8.37;;;-10.90;99.90;;;;;;4955762;28;20216;-70
2022/01/12 01:36:45;;;;;;;18.97;8.20;;;-10.90;99.90;;;;;;4951547;29;20201;-69
2022/01/12 01:39:14;;;;;;;16.67;7.70;;;-10.90;99.90;;;;;;4966345;28;20226;-71
2022/01/12 01:41:45;;;;;;;16.63;8.00;;;-10.90;99.90;;;;;;4970738;28;20214;-69
2022/01/12 01:55:21;;;;;;;16.50;8.23;;;-10.90;99.90;;;;;;4992004;28;20327;-70
2022/01/12 01:57:48;;;;;;;17.90;7.90;;;-10.90;99.90;;;;;;4992457;28;20207;-69
2022/01/12 02:00:18;;;;;;;18.07;8.20;;;-10.90;99.90;;;;;;4992209;28;20333;-70
2022/01/12 02:02:46;;;;;;;16.47;8.00;;;-11.00;99.90;;;;;;4992070;28;20211;-69
2022/01/12 02:05:14;;;;;;;17.53;8.30;;;-11.00;99.90;;;;;;4992165;28;20747;-69
2022/01/12 02:07:41;;;;;;;16.87;8.10;;;-11.00;99.90;;;;;;4992145;28;20207;-71
2022/01/12 02:10:09;;;;;;;16.90;8.60;;;-11.10;99.90;;;;;;4992117;28;20227;-69
2022/01/12 02:12:36;;;;;;;17.87;8.53;;;-11.10;99.90;;;;;;4992387;28;20216;-70
2022/01/12 02:15:12;;;;;;;16.73;8.53;;;-11.10;99.90;;;;;;4991919;28;20210;-71
2022/01/12 02:17:51;;;;;;;21.37;8.93;;;-11.10;99.90;;;;;;4992426;28;20545;-70
2022/01/12 02:35:08;;;;;;;18.93;8.30;;;-11.20;99.90;;;;;;4992147;28;20250;-70
2022/01/12 02:37:02;;;;;;;15.63;7.20;;;-11.20;99.90;;;;;;4995650;28;20553;-69
2022/01/12 02:39:52;;;;;;;16.53;8.17;;;-11.20;99.90;;;;;;4995842;28;20287;-68
2022/01/12 02:42:19;;;;;;;14.87;8.10;;;-11.10;99.90;;;;;;4995581;28;20278;-69
2022/01/12 02:55:46;;;;;;;17.33;7.73;;;-11.10;99.90;;;;;;4995155;28;20824;-73
2022/01/12 02:58:13;;;;;;;13.77;7.43;;;-11.10;99.90;;;;;;4995625;28;20215;-69
2022/01/12 03:01:01;;;;;;;19.37;8.47;;;-11.10;99.90;;;;;;4994977;28;20231;-70
2022/01/12 03:03:31;;;;;;;17.03;8.43;;;-11.10;99.90;;;;;;4995266;28;20279;-70
2022/01/12 03:06:00;;;;;;;14.67;7.90;;;-11.10;99.90;;;;;;4995135;28;20216;-70
2022/01/12 03:08:29;;;;;;;15.00;7.73;;;-11.10;99.90;;;;;;4995392;28;20243;-69
2022/01/12 03:10:57;;;;;;;18.30;7.70;;;-11.20;99.90;;;;;;4994823;28;20225;-70
2022/01/12 03:13:24;;;;;;;17.87;7.63;;;-11.20;99.90;;;;;;4994795;28;20211;-69
2022/01/12 03:15:51;;;;;;;15.40;6.67;;;-11.20;99.90;;;;;;4994540;28;20395;-68
2022/01/12 03:18:18;;;;;;;19.23;7.83;;;-11.30;99.90;;;;;;4995050;28;20521;-69
2022/01/12 03:20:46;;;;;;;15.53;7.90;;;-11.30;99.90;;;;;;4994898;28;20278;-70
2022/01/12 03:23:15;;;;;;;16.53;7.87;;;-11.30;99.90;;;;;;4994675;28;20219;-70
2022/01/12 03:25:42;;;;;;;14.53;7.47;;;-11.40;99.90;;;;;;4994387;28;20223;-70
2022/01/12 03:28:11;;;;;;;15.43;7.70;;;-11.40;99.90;;;;;;4994990;28;20207;-69
2022/01/12 03:30:51;;;;;;;20.07;8.93;;;-11.40;99.90;;;;;;4994605;28;20303;-69
2022/01/12 03:33:32;;;;;;;23.93;9.00;;;-11.50;99.90;;;;;;4994834;28;20192;-70
2022/01/12 03:36:26;;;;;;;27.10;10.00;;;-11.50;99.90;;;;;;4994224;28;20214;-69
2022/01/12 03:38:55;;;;;;;25.07;10.33;;;-11.50;99.90;;;;;;4994493;28;20651;-71
2022/01/12 03:41:23;;;;;;;21.60;9.83;;;-11.60;99.90;;;;;;4974464;28;20204;-70
2022/01/12 03:43:51;;;;;;;22.83;9.73;;;-11.60;99.90;;;;;;4975182;28;20210;-71
2022/01/12 03:46:22;;;;;;;20.93;8.80;;;-11.60;99.90;;;;;;4992734;28;20231;-68
2022/01/12 03:48:49;;;;;;;20.83;8.83;;;-11.70;99.90;;;;;;4994602;28;20552;-69
2022/01/12 03:51:16;;;;;;;17.77;8.67;;;-11.70;99.90;;;;;;4994346;28;20214;-70
2022/01/12 03:53:43;;;;;;;21.17;9.50;;;-11.80;99.90;;;;;;4994414;28;20203;-71
2022/01/12 03:56:10;;;;;;;19.27;8.10;;;-11.70;99.90;;;;;;4994396;28;20661;-70
2022/01/12 03:58:37;;;;;;;15.63;8.13;;;-11.80;99.90;;;;;;4994316;28;20211;-70
2022/01/12 04:01:06;;;;;;;19.13;8.03;;;-11.80;99.90;;;;;;4993654;28;20235;-69
2022/01/12 04:03:38;;;;;;;17.83;7.97;;;-11.80;99.90;;;;;;4994205;28;20668;-68
2022/01/12 04:08:49;;;;;;;18.57;7.37;;;-11.90;99.90;;;;;;4993698;28;20192;-69
2022/01/12 04:11:16;;;;;;;14.17;7.53;;;-11.90;99.90;;;;;;4993865;28;20239;-68
2022/01/12 04:13:43;;;;;;;14.47;7.43;;;-11.90;99.90;;;;;;4994392;28;20664;-68
2022/01/12 04:16:13;;;;;;;14.20;7.10;;;-11.90;99.90;;;;;;4993939;28;20645;-69
2022/01/12 04:18:41;;;;;;;17.13;7.57;;;-12.00;99.90;;;;;;4993706;28;20214;-70
2022/01/12 04:21:09;;;;;;;18.00;8.03;;;-12.00;99.90;;;;;;4993525;28;20200;-70
2022/01/12 04:23:37;;;;;;;15.53;7.37;;;-12.00;99.90;;;;;;4993404;28;20210;-71
2022/01/12 04:26:09;;;;;;;15.03;6.77;;;-12.00;99.90;;;;;;4993655;28;20262;-70
2022/01/12 04:28:38;;;;;;;16.83;7.63;;;-12.00;99.90;;;;;;4993545;28;20280;-70
2022/01/12 04:31:05;;;;;;;20.87;7.47;;;-12.10;99.90;;;;;;4992600;28;20211;-70
2022/01/12 04:33:34;;;;;;;13.33;7.13;;;-12.20;99.90;;;;;;4992795;28;20206;-70
2022/01/12 04:36:01;;;;;;;13.13;6.90;;;-12.20;99.90;;;;;;4993848;28;20207;-69
2022/01/12 04:38:33;;;;;;;17.37;7.93;;;-12.30;99.90;;;;;;4993186;28;20206;-74
2022/01/12 04:41:00;;;;;;;15.73;6.87;;;-12.40;99.90;;;;;;4993190;28;20188;-69
2022/01/12 04:43:27;;;;;;;18.13;8.10;;;-12.40;99.90;;;;;;4992249;28;20203;-70
2022/01/12 04:46:23;;;;;;;17.37;7.63;;;-12.50;99.90;;;;;;4993221;28;20682;-72
2022/01/12 04:48:56;;;;;;;19.77;8.30;;;-12.50;99.90;;;;;;4992921;28;20322;-71
2022/01/12 04:51:23;;;;;;;15.87;7.60;;;-12.60;99.90;;;;;;4993016;28;20196;-71
2022/01/12 04:53:50;;;;;;;17.53;7.77;;;-12.60;99.90;;;;;;4992423;28;20289;-71
2022/01/12 04:56:17;;;;;;;17.40;7.73;;;-12.60;99.90;;;;;;4992960;28;20213;-72
2022/01/12 04:58:44;;;;;;;16.27;7.20;;;-12.60;99.90;;;;;;4992574;28;20986;-71
2022/01/12 05:01:21;;;;;;;17.40;7.87;;;-12.60;99.90;;;;;;4992764;28;20246;-71
2022/01/12 05:06:44;;;;;;;17.87;7.90;;;-12.70;99.90;;;;;;4992340;28;20220;-71
2022/01/12 05:09:28;;;;;;;18.00;8.20;;;-12.70;99.90;;;;;;4992890;28;20191;-71
2022/01/12 05:14:54;;;;;;;16.67;8.37;;;-12.80;99.90;;;;;;4973137;28;20195;-70
2022/01/12 05:17:21;;;;;;;22.53;9.13;;;-12.70;99.90;;;;;;4973104;28;20196;-70
2022/01/12 05:19:47;;;;;;;16.63;7.50;;;-12.70;99.90;;;;;;4973261;28;20215;-71
2022/01/12 05:22:15;;;;;;;18.60;8.17;;;-12.80;99.90;;;;;;4974469;28;20697;-71
2022/01/12 05:24:42;;;;;;;22.47;8.50;;;-12.80;99.90;;;;;;4992666;28;20580;-71
2022/01/12 05:27:09;;;;;;;18.57;7.80;;;-12.90;99.90;;;;;;4992845;28;20584;-72
2022/01/12 05:29:36;;;;;;;18.40;7.60;;;-12.90;99.90;;;;;;4992463;28;20564;-70
2022/01/12 05:32:03;;;;;;;17.57;8.33;;;-12.90;99.90;;;;;;4992801;28;20207;-71
2022/01/12 05:34:31;;;;;;;18.63;8.43;;;-12.90;99.90;;;;;;4992454;28;20569;-70
2022/01/12 05:36:57;;;;;;;18.30;7.87;;;-12.90;99.90;;;;;;4992920;28;20302;-70
2022/01/12 05:39:25;;;;;;;17.63;8.47;;;-13.00;99.90;;;;;;4992514;28;20204;-69
2022/01/12 05:41:52;;;;;;;19.77;8.87;;;-13.00;99.90;;;;;;4992660;28;20226;-70
2022/01/12 05:44:22;;;;;;;16.93;8.10;;;-13.00;99.90;;;;;;4991879;28;20210;-70
2022/01/12 05:46:49;;;;;;;14.87;7.43;;;-13.00;99.90;;;;;;4992253;28;20219;-71
2022/01/12 05:49:34;;;;;;;19.80;8.50;;;-13.00;99.90;;;;;;4992750;28;20655;-70
2022/01/12 05:52:01;;;;;;;20.60;9.07;;;-13.00;99.90;;;;;;4992469;28;20640;-71
2022/01/12 05:54:29;;;;;;;17.57;8.60;;;-13.00;99.90;;;;;;4992035;28;20208;-70
2022/01/12 05:56:56;;;;;;;16.60;7.83;;;-13.10;99.90;;;;;;4992633;28;20227;-71
2022/01/12 05:59:23;;;;;;;23.40;8.00;;;-13.10;99.90;;;;;;4992204;28;20747;-72
2022/01/12 06:01:49;;;;;;;19.53;7.60;;;-13.20;99.90;;;;;;4992553;28;20687;-71
2022/01/12 06:04:16;;;;;;;18.97;8.27;;;-13.20;99.90;;;;;;4994847;28;20234;-70
2022/01/12 06:06:43;;;;;;;18.10;8.03;;;-13.20;99.90;;;;;;4996735;28;20222;-71
2022/01/12 06:09:10;;;;;;;22.83;8.80;;;-13.20;99.90;;;;;;4996622;28;20207;-70
2022/01/12 06:11:38;;;;;;;17.93;8.23;;;-13.20;99.90;;;;;;4996629;28;20254;-71
2022/01/12 06:14:07;;;;;;;20.73;8.77;;;-13.20;99.90;;;;;;4996750;28;20559;-72
2022/01/12 06:16:34;;;;;;;19.37;8.67;;;-13.20;99.90;;;;;;4997111;28;20235;-70
2022/01/12 06:19:01;;;;;;;17.90;8.60;;;-13.20;99.90;;;;;;4997011;28;20206;-71
2022/01/12 06:21:27;;;;;;;20.00;8.37;;;-13.10;99.90;;;;;;4995839;28;20203;-71
2022/01/12 06:23:54;;;;;;;17.37;8.47;;;-13.10;99.90;;;;;;4996075;28;20203;-70
2022/01/12 06:26:24;;;;;;;19.47;8.73;;;-13.20;99.90;;;;;;4995825;28;20656;-71
2022/01/12 06:29:22;;;;;;;21.00;8.33;;;-13.20;99.90;;;;;;4995684;28;20223;-70
2022/01/12 06:31:51;;;;;;;19.03;8.93;;;-13.10;99.90;;;;;;4995874;28;20215;-69
2022/01/12 06:34:18;;;;;;;23.50;9.70;;;-13.20;99.90;;;;;;4995581;28;20222;-72
2022/01/12 06:36:45;;;;;;;22.63;9.80;;;-13.20;99.90;;;;;;4996094;28;20695;-70
2022/01/12 06:39:17;;;;;;;21.63;9.40;;;-13.10;99.90;;;;;;4995791;28;20207;-71
2022/01/12 06:41:45;;;;;;;24.57;9.73;;;-13.20;99.90;;;;;;4995717;28;20206;-71
2022/01/12 06:44:15;;;;;;;19.67;9.53;;;-13.20;99.90;;;;;;4995730;28;20207;-70
2022/01/12 06:46:43;;;;;;;21.77;10.17;;;-13.20;99.90;;;;;;4995361;28;20310;-71
2022/01/12 06:49:11;;;;;;;22.20;10.43;;;-13.20;99.90;;;;;;4995550;28;20211;-70
2022/01/12 06:51:38;;;;;;;28.87;11.67;;;-13.10;99.90;;;;;;4995877;28;20676;-71
2022/01/12 06:54:05;;;;;;;24.20;9.67;;;-13.10;99.90;;;;;;4995797;28;20254;-71
2022/01/12 06:56:32;;;;;;;20.70;9.27;;;-13.10;99.90;;;;;;4994872;28;20210;-70
2022/01/12 06:58:59;;;;;;;20.83;9.47;;;-13.00;99.90;;;;;;4995071;28;20238;-71
2022/01/12 07:01:27;;;;;;;18.23;8.77;;;-13.00;99.90;;;;;;4995041;28;20215;-71
2022/01/12 07:03:54;;;;;;;16.93;8.27;;;-13.00;99.90;;;;;;4995393;28;20214;-72
2022/01/12 07:06:21;;;;;;;20.40;8.80;;;-13.00;99.90;;;;;;4994979;28;20226;-72
2022/01/12 07:08:48;;;;;;;17.77;8.47;;;-12.90;99.90;;;;;;4995141;28;20209;-70
2022/01/12 07:11:14;;;;;;;20.00;8.43;;;-12.90;99.90;;;;;;4994739;28;20203;-70
2022/01/12 07:13:41;;;;;;;18.57;8.80;;;-12.90;99.90;;;;;;4993959;28;20203;-70
2022/01/12 07:16:08;;;;;;;22.43;9.60;;;-12.90;99.90;;;;;;4994929;28;20206;-71
2022/01/12 07:18:36;;;;;;;23.87;9.60;;;-12.90;99.90;;;;;;4994854;28;20224;-71
2022/01/12 07:21:03;;;;;;;20.67;8.97;;;-12.90;99.90;;;;;;4994989;28;20600;-71
2022/01/12 07:23:30;;;;;;;21.00;9.53;;;-12.90;99.90;;;;;;4995225;28;20203;-70
2022/01/12 07:25:57;;;;;;;19.47;8.97;;;-12.80;99.90;;;;;;4995172;28;20207;-72
2022/01/12 07:28:24;;;;;;;18.90;9.07;;;-12.80;99.90;;;;;;4994681;28;20206;-71
2022/01/12 07:30:51;;;;;;;21.90;8.60;;;-12.70;99.90;;;;;;4994793;28;20199;-71
2022/01/12 07:33:18;;;;;;;18.17;8.60;;;-12.70;99.90;;;;;;4994778;28;20226;-71
2022/01/12 07:35:46;;;;;;;19.13;8.63;;;-12.70;99.90;;;;;;4994657;28;20215;-71
2022/01/12 07:38:12;;;;;;;18.20;8.97;;;-12.60;99.90;;;;;;4994703;28;20694;-72
2022/01/12 07:40:39;;;;;;;18.53;8.30;;;-12.60;99.90;;;;;;4994787;28;20758;-72
2022/01/12 07:43:07;;;;;;;22.10;8.23;;;-12.60;99.90;;;;;;4994453;28;20207;-72
2022/01/12 07:45:34;;;;;;;16.10;8.00;;;-12.50;99.90;;;;;;4994299;28;20576;-71
2022/01/12 07:48:01;;;;;;;20.03;9.20;;;-12.40;99.90;;;;;;4994308;28;20207;-70
2022/01/12 07:50:28;;;;;;;19.27;8.40;;;-12.40;99.90;;;;;;4994194;28;20207;-72
2022/01/12 07:52:56;;;;;;;16.73;8.53;;;-12.40;99.90;;;;;;4994743;28;20668;-71
2022/01/12 07:55:24;;;;;;;19.90;8.00;;;-12.40;99.90;;;;;;4993938;28;20241;-71
2022/01/12 07:57:52;;;;;;;17.67;8.70;;;-12.40;99.90;;;;;;4994291;28;20235;-71
2022/01/12 08:00:20;;;;;;;20.80;8.90;;;-12.40;99.90;;;;;;4993995;28;20580;-71
2022/01/12 08:02:49;;;;;;;19.87;9.13;;;-12.30;99.90;;;;;;4993796;28;20608;-71
2022/01/12 08:05:16;;;;;;;18.70;9.57;;;-12.30;99.90;;;;;;4994348;28;20207;-71
2022/01/12 08:07:43;;;;;;;20.33;9.67;;;-12.20;99.90;;;;;;4994053;28;20231;-70
2022/01/12 08:10:11;;;;;;;20.10;9.30;;;-12.20;99.90;;;;;;4993785;28;20258;-71
2022/01/12 08:12:38;;;;;;;20.10;9.07;;;-12.20;99.90;;;;;;4994359;28;20203;-71
2022/01/12 08:15:07;;;;;;;16.60;7.90;;;-12.20;99.90;;;;;;4993732;28;20210;-71
2022/01/12 08:17:35;;;;;;;19.10;8.73;;;-12.20;99.90;;;;;;4993096;28;20220;-71
2022/01/12 08:20:03;;;;;;;20.20;8.90;;;-12.10;99.90;;;;;;4994438;28;20223;-71
2022/01/12 08:22:30;;;;;;;17.43;7.97;;;-12.10;99.90;;;;;;4994259;28;20215;-71
2022/01/12 08:24:57;;;;;;;20.53;8.67;;;-12.10;99.90;;;;;;4974387;28;20208;-73
2022/01/12 08:27:25;;;;;;;16.77;8.33;;;-12.00;99.90;;;;;;4974332;28;20204;-72
2022/01/12 08:29:59;;;;;;;19.53;8.87;;;-12.00;99.90;;;;;;4993780;28;20195;-71
2022/01/12 08:32:26;;;;;;;14.13;7.50;;;-12.00;99.90;;;;;;4995801;28;20227;-72
2022/01/12 08:34:52;;;;;;;15.07;7.77;;;-12.00;99.90;;;;;;4993105;28;20203;-72
2022/01/12 08:37:20;;;;;;;13.50;6.83;;;-12.00;99.90;;;;;;4993605;28;20246;-72
2022/01/12 08:39:46;;;;;;;14.70;8.00;;;-12.00;99.90;;;;;;4993811;28;20214;-69
2022/01/12 08:42:13;;;;;;;15.57;6.60;;;-12.10;99.90;;;;;;4992315;28;20200;-71
2022/01/12 08:44:42;;;;;;;15.10;7.57;;;-12.10;99.90;;;;;;4974320;28;20657;-70
2022/01/12 08:47:09;;;;;;;16.20;7.40;;;-12.10;99.90;;;;;;4973759;28;20295;-71
2022/01/12 08:49:36;;;;;;;18.03;7.43;;;-12.10;99.90;;;;;;4974341;28;20214;-70
2022/01/12 08:52:05;;;;;;;15.80;8.13;;;-12.10;99.90;;;;;;4974065;28;20237;-72
2022/01/12 08:54:32;;;;;;;15.20;7.30;;;-12.10;99.90;;;;;;4991670;28;20683;-71
2022/01/12 08:56:58;;;;;;;16.30;7.50;;;-12.00;99.90;;;;;;4992942;28;20211;-68
2022/01/12 08:59:25;;;;;;;14.70;7.50;;;-11.90;99.90;;;;;;4992599;28;20227;-70
2022/01/12 09:01:53;;;;;;;14.17;7.50;;;-11.80;99.90;;;;;;4992879;28;20208;-71
2022/01/12 09:04:21;;;;;;;19.57;8.57;;;-11.80;99.90;;;;;;4992192;28;20219;-71
2022/01/12 09:06:48;;;;;;;15.23;7.70;;;-11.80;99.90;;;;;;4991350;28;20195;-72
2022/01/12 09:09:15;;;;;;;16.10;7.27;;;-11.70;99.90;;;;;;4992220;28;20199;-71
2022/01/12 09:11:41;;;;;;;16.17;7.43;;;-11.70;99.90;;;;;;4993223;28;20214;-71
2022/01/12 09:14:08;;;;;;;17.37;8.00;;;-11.70;99.90;;;;;;4993049;28;20239;-72
2022/01/12 09:16:35;;;;;;;16.30;7.97;;;-11.70;99.90;;;;;;4992513;28;20213;-71
2022/01/12 09:19:04;;;;;;;17.97;7.70;;;-11.70;99.90;;;;;;4992170;28;20245;-71
2022/01/12 09:21:31;;;;;;;14.77;7.43;;;-11.70;99.90;;;;;;4993120;28;20204;-70
2022/01/12 09:23:58;;;;;;;16.53;7.30;;;-11.70;99.90;;;;;;4992352;28;20572;-70
2022/01/12 09:26:25;;;;;;;16.93;7.77;;;-11.60;99.90;;;;;;4993073;28;20235;-70
2022/01/12 09:28:52;;;;;;;16.47;8.23;;;-11.50;99.90;;;;;;4992829;28;20226;-71
2022/01/12 09:31:18;;;;;;;15.00;7.00;;;-11.40;99.90;;;;;;5004630;28;20203;-71
2022/01/12 09:33:49;;;;;;;16.00;8.00;;;-11.30;99.90;;;;;;5007829;28;20575;-71
2022/01/12 09:36:17;;;;;;;17.20;8.20;;;-11.30;99.90;;;;;;4991950;28;20652;-72
2022/01/12 09:38:44;;;;;;;13.90;7.00;;;-11.30;99.90;;;;;;4992702;28;20249;-71
2022/01/12 09:41:11;;;;;;;14.00;7.40;;;-11.20;99.90;;;;;;4991521;28;20454;-72
2022/01/12 09:43:39;;;;;;;17.87;7.40;;;-11.20;99.90;;;;;;4992311;28;20211;-72
2022/01/12 09:46:08;;;;;;;13.57;7.50;;;-11.30;99.90;;;;;;4992184;28;20215;-71
2022/01/12 09:48:36;;;;;;;24.43;8.30;;;-11.20;99.90;;;;;;4992687;28;20211;-71
2022/01/12 09:51:06;;;;;;;18.27;7.83;;;-11.10;99.90;;;;;;4992140;28;20203;-72
2022/01/12 09:53:37;;;;;;;14.33;7.57;;;-11.00;99.90;;;;;;4992740;28;20238;-71
2022/01/12 09:56:12;;;;;;;16.53;8.27;;;-11.00;99.90;;;;;;4991176;28;20406;-71
2022/01/12 09:58:38;;;;;;;16.57;7.93;;;-11.00;99.90;;;;;;4992160;28;20690;-72
2022/01/12 10:01:05;;;;;;;15.57;7.93;;;-11.10;99.90;;;;;;4991861;28;20250;-72
2022/01/12 10:03:32;;;;;;;17.43;7.90;;;-11.00;99.90;;;;;;4991763;28;20226;-71
2022/01/12 10:06:00;;;;;;;18.07;9.10;;;-11.00;99.90;;;;;;4991503;28;20206;-71
2022/01/12 10:08:27;;;;;;;16.13;8.13;;;-10.90;99.90;;;;;;4991412;28;20599;-70
2022/01/12 10:11:06;;;;;;;15.93;8.60;;;-10.90;99.90;;;;;;4991723;28;20203;-72
2022/01/12 10:13:33;;;;;;;13.53;7.57;;;-11.00;99.90;;;;;;4991460;28;20199;-71
2022/01/12 10:16:12;;;;;;;15.67;7.80;;;-11.00;99.90;;;;;;4991894;28;20207;-69
2022/01/12 10:18:50;;;;;;;16.50;7.43;;;-11.00;99.90;;;;;;4991496;28;20219;-71
2022/01/12 10:21:27;;;;;;;19.60;8.67;;;-10.90;99.90;;;;;;4991426;28;20199;-71
2022/01/12 10:23:59;;;;;;;17.67;7.90;;;-10.90;99.90;;;;;;4991665;28;20566;-70
2022/01/12 10:26:38;;;;;;;16.40;7.93;;;-10.90;99.90;;;;;;4991434;28;20211;-71
2022/01/12 10:29:06;;;;;;;16.43;7.33;;;-10.90;99.90;;;;;;4991525;28;20191;-70
2022/01/12 10:31:44;;;;;;;16.27;8.27;;;-10.90;99.90;;;;;;4991136;28;20199;-71
2022/01/12 10:34:11;;;;;;;14.83;7.40;;;-10.80;99.90;;;;;;4991965;28;20207;-70
2022/01/12 10:36:38;;;;;;;16.20;7.87;;;-10.70;99.90;;;;;;4991706;28;20726;-70
2022/01/12 10:39:07;;;;;;;12.90;7.00;;;-10.50;99.90;;;;;;4991712;28;20227;-70
2022/01/12 10:41:35;;;;;;;16.03;7.60;;;-10.50;99.90;;;;;;4991391;28;20677;-71
2022/01/12 10:44:02;;;;;;;13.17;7.17;;;-10.60;99.90;;;;;;4990936;28;20215;-71
2022/01/12 10:46:31;;;;;;;15.70;7.60;;;-10.60;99.90;;;;;;4991662;28;20199;-71
2022/01/12 10:48:59;;;;;;;14.13;7.17;;;-10.60;99.90;;;;;;4992046;28;20211;-70
2022/01/12 10:51:28;;;;;;;14.20;6.90;;;-10.70;99.90;;;;;;4994980;28;20215;-71
2022/01/12 10:54:00;;;;;;;16.50;7.23;;;-10.70;99.90;;;;;;4994324;28;20210;-72
2022/01/12 10:56:27;;;;;;;13.40;7.17;;;-10.90;99.90;;;;;;4994915;28;20571;-72
2022/01/12 10:58:57;;;;;;;14.33;7.00;;;-10.80;99.90;;;;;;4994994;28;20231;-71
2022/01/12 11:01:28;;;;;;;14.20;6.67;;;-10.70;99.90;;;;;;4994361;28;20203;-72
2022/01/12 11:03:55;;;;;;;12.47;7.00;;;-10.60;99.90;;;;;;4994386;28;20246;-72
2022/01/12 11:06:22;;;;;;;15.97;7.97;;;-10.50;99.90;;;;;;4994754;28;20211;-71
2022/01/12 11:08:49;;;;;;;13.03;7.03;;;-10.50;99.90;;;;;;4994947;28;20203;-70
2022/01/12 11:11:17;;;;;;;14.50;7.00;;;-10.50;99.90;;;;;;4995340;28;20238;-73
2022/01/12 11:13:45;;;;;;;14.37;7.70;;;-10.50;99.90;;;;;;4994896;28;20231;-72
2022/01/12 11:16:13;;;;;;;14.87;7.67;;;-10.50;99.90;;;;;;4995376;28;20572;-72
2022/01/12 11:18:41;;;;;;;14.93;7.87;;;-10.50;99.90;;;;;;4994823;28;20227;-72
2022/01/12 11:21:19;;;;;;;12.60;6.50;;;-10.50;99.90;;;;;;4994160;28;20211;-71
2022/01/12 11:23:46;;;;;;;12.63;7.10;;;-10.50;99.90;;;;;;4994716;28;20203;-69
2022/01/12 11:26:16;;;;;;;12.03;6.37;;;-10.50;99.90;;;;;;4994234;28;20657;-69
2022/01/12 11:28:43;;;;;;;11.27;6.13;;;-10.50;99.90;;;;;;4993745;28;20204;-73
2022/01/12 11:31:11;;;;;;;13.03;6.57;;;-10.40;99.90;;;;;;4994802;28;20219;-71
2022/01/12 11:33:42;;;;;;;14.57;7.30;;;-10.40;99.90;;;;;;4994287;28;20231;-72
2022/01/12 11:36:16;;;;;;;15.47;6.90;;;-10.40;99.90;;;;;;4995006;28;20200;-72
2022/01/12 11:38:47;;;;;;;14.53;7.57;;;-10.30;99.90;;;;;;4994312;28;20580;-72
2022/01/12 11:41:16;;;;;;;16.07;7.30;;;-10.30;99.90;;;;;;4994764;28;20192;-71
2022/01/12 11:43:45;;;;;;;16.87;8.10;;;-10.30;99.90;;;;;;4993986;28;20223;-71
2022/01/12 11:46:14;;;;;;;20.40;8.13;;;-10.20;99.90;;;;;;4994499;28;20203;-71
2022/01/12 11:48:49;;;;;;;16.77;7.77;;;-10.30;99.90;;;;;;4994599;28;20303;-71
2022/01/12 11:51:19;;;;;;;14.87;7.40;;;-10.30;99.90;;;;;;4994561;28;20206;-73
2022/01/12 11:53:52;;;;;;;13.63;6.53;;;-10.30;99.90;;;;;;4994120;28;20699;-71
2022/01/12 11:56:21;;;;;;;14.47;7.00;;;-10.30;99.90;;;;;;4994185;28;20203;-71
2022/01/12 11:58:59;;;;;;;15.83;7.20;;;-10.30;99.90;;;;;;4993924;28;20231;-71
2022/01/12 12:01:38;;;;;;;17.27;7.40;;;-10.30;99.90;;;;;;4992464;28;20198;-71
2022/01/12 12:04:08;;;;;;;17.87;8.60;;;-10.40;99.90;;;;;;4993180;28;20195;-71
2022/01/12 12:06:35;;;;;;;18.03;8.83;;;-10.40;99.90;;;;;;4993715;28;20211;-70
2022/01/12 12:09:04;;;;;;;20.53;9.30;;;-10.50;99.90;;;;;;4993548;28;20208;-69
2022/01/12 12:11:32;;;;;;;17.70;8.07;;;-10.60;99.90;;;;;;4993650;28;20207;-71
2022/01/12 12:14:04;;;;;;;18.83;8.87;;;-10.70;99.90;;;;;;4993605;28;20204;-70
2022/01/12 12:16:31;;;;;;;16.70;7.80;;;-10.70;99.90;;;;;;4993371;28;20198;-71
2022/01/12 12:18:58;;;;;;;15.90;7.83;;;-10.80;99.90;;;;;;4993708;28;20231;-70
2022/01/12 12:21:26;;;;;;;15.77;7.57;;;-10.80;99.90;;;;;;4993403;28;20208;-70
2022/01/12 12:23:53;;;;;;;16.47;8.93;;;-10.80;99.90;;;;;;4993541;28;20572;-71
2022/01/12 12:26:21;;;;;;;22.10;10.03;;;-10.70;99.90;;;;;;4993072;28;20207;-71
2022/01/12 12:28:55;;;;;;;19.93;8.77;;;-10.70;99.90;;;;;;4991634;28;20207;-72
2022/01/12 12:31:24;;;;;;;22.10;10.00;;;-10.60;99.90;;;;;;4992351;28;20657;-71
2022/01/12 12:34:02;;;;;;;14.67;7.90;;;-10.60;99.90;;;;;;4992999;28;20628;-71
2022/01/12 12:36:31;;;;;;;18.33;8.53;;;-10.70;99.90;;;;;;4993524;28;20196;-72
2022/01/12 12:39:09;;;;;;;14.70;8.17;;;-10.60;99.90;;;;;;4994072;28;20350;-72
2022/01/12 12:41:38;;;;;;;16.00;7.87;;;-10.70;99.90;;;;;;4993701;28;20219;-72
2022/01/12 12:44:06;;;;;;;15.07;8.27;;;-10.80;99.90;;;;;;4993817;28;20664;-73
2022/01/12 12:46:33;;;;;;;16.27;7.90;;;-10.90;99.90;;;;;;4993440;28;20207;-72
2022/01/12 12:49:00;;;;;;;16.60;7.50;;;-10.90;99.90;;;;;;4988071;28;20222;-71
2022/01/12 12:51:26;;;;;;;17.90;8.03;;;-10.90;99.90;;;;;;4993299;28;20656;-70
2022/01/12 12:53:58;;;;;;;18.30;8.10;;;-10.90;99.90;;;;;;4993705;28;20586;-72
2022/01/12 12:56:28;;;;;;;16.33;7.77;;;-10.80;99.90;;;;;;4983717;28;20208;-70
2022/01/12 12:58:57;;;;;;;18.67;8.33;;;-10.80;99.90;;;;;;4985684;28;20587;-71
2022/01/12 13:01:26;;;;;;;15.03;7.83;;;-10.70;99.90;;;;;;4991896;28;20203;-70
2022/01/12 13:03:54;;;;;;;15.80;7.60;;;-10.70;99.90;;;;;;4992026;28;20203;-72
2022/01/12 13:06:22;;;;;;;15.53;7.40;;;-10.70;99.90;;;;;;4989270;28;20211;-71
2022/01/12 13:08:55;;;;;;;17.47;8.23;;;-10.70;99.90;;;;;;4992062;28;20250;-71
2022/01/12 13:11:28;;;;;;;14.83;7.30;;;-10.70;99.90;;;;;;4988992;28;20207;-70
2022/01/12 13:13:59;;;;;;;13.13;7.10;;;-10.70;99.90;;;;;;4992380;28;20287;-72
2022/01/12 13:16:27;;;;;;;14.53;7.40;;;-10.70;99.90;;;;;;4992684;28;20206;-72
2022/01/12 13:19:03;;;;;;;16.93;8.17;;;-10.80;99.90;;;;;;4993296;28;20566;-71
2022/01/12 13:21:30;;;;;;;17.30;8.37;;;-10.70;99.90;;;;;;4992707;28;20226;-71
2022/01/12 13:24:00;;;;;;;13.47;7.87;;;-10.70;99.90;;;;;;4993437;28;20249;-72
2022/01/12 13:26:31;;;;;;;16.60;8.93;;;-10.70;99.90;;;;;;4993177;28;20211;-71
2022/01/12 13:29:00;;;;;;;18.07;9.00;;;-10.70;99.90;;;;;;4992694;28;20553;-71
2022/01/12 13:31:29;;;;;;;18.87;9.70;;;-10.70;99.90;;;;;;4992635;28;20294;-72
2022/01/12 13:33:59;;;;;;;20.83;9.83;;;-10.70;99.90;;;;;;4992372;28;20199;-71
2022/01/12 13:36:27;;;;;;;19.87;9.27;;;-10.80;99.90;;;;;;4992335;28;20195;-73